WetterOnline ( http://www.wetteronline.de )

Wetter aktuell Weißenburg

Aktuelles Wetter: Weißenburg (424m)

6-stündlich | Neueste Meldungen
Ortszeit Temperatur Wetter
Mo, 18.03. 19:00 3.5° C bewölkt
Mo, 18.03. 13:00 6.8° C leicht bewölkt
Mo, 18.03. 7:00 1.5° C wolkig
Mo, 18.03. 1:00 3.5° C bewölkt
So, 17.03. 19:00 4.4° C bedeckt
So, 17.03. 13:00 15.4° C leicht bewölkt
So, 17.03. 7:00 5.7° C fast wolkenlos
So, 17.03. 1:00 3.4° C wolkig
Ortszeit Temperatur Wetter
Di, 19.03. 0:00 0.8° C leicht bewölkt
Mo, 18.03. 23:50 0.8° C leicht bewölkt
Mo, 18.03. 23:40 0.9° C leicht bewölkt
Mo, 18.03. 23:30 0.1° C fast wolkenlos
Mo, 18.03. 23:20 0.1° C fast wolkenlos
Mo, 18.03. 23:10 0.4° C wolkenlos
Mo, 18.03. 23:00 0.5° C wolkenlos
Mo, 18.03. 22:30 1.5° C wolkenlos
Mo, 18.03. 22:00 1.9° C leicht bewölkt
Mo, 18.03. 21:30 2.1° C bewölkt
Mo, 18.03. 21:00 2.9° C Sprühregen
Ortszeit Relative Feuchte Sichtweite
Mo, 18.03. 19:00 83% 60 km
Mo, 18.03. 13:00 58% 30 km
Mo, 18.03. 7:00 84% 70 km
Mo, 18.03. 1:00 80% 70 km
So, 17.03. 19:00 86% 70 km
So, 17.03. 13:00 45% 27 km
So, 17.03. 7:00 70% 70 km
So, 17.03. 1:00 89% 50 km
Ortszeit Relative Feuchte Sichtweite
Di, 19.03. 0:00 90% 45 km
Mo, 18.03. 23:50 90% -
Mo, 18.03. 23:40 88% -
Mo, 18.03. 23:30 93% 29 km
Mo, 18.03. 23:20 93% -
Mo, 18.03. 23:10 94% -
Mo, 18.03. 23:00 94% 27 km
Mo, 18.03. 22:30 90% 50 km
Mo, 18.03. 22:00 90% 65 km
Mo, 18.03. 21:30 88% 70 km
Mo, 18.03. 21:00 88% 22 km
Ortszeit Niederschlagsmenge Niederschlagsart
Mo, 18.03. 19:00 0.1 l/m2 in 12 Std. Regen
Mo, 18.03. 13:00 0.1 l/m2 in 6 Std. Schnee, Regen
Mo, 18.03. 7:00 0.3 l/m2 in 12 Std. -
Mo, 18.03. 1:00 0.3 l/m2 in 6 Std. Regen
So, 17.03. 19:00 0.7 l/m2 in 12 Std. Regen
So, 17.03. 13:00 0.0 l/m2 in 6 Std. -
So, 17.03. 7:00 0.0 l/m2 in 12 Std. -
So, 17.03. 1:00 0.0 l/m2 in 6 Std. -
Ortszeit Niederschlagsmenge Niederschlagsart
Di, 19.03. 0:00 0.0 l/m2 in 1 Std. -
Mo, 18.03. 23:50 keine Meldung -
Mo, 18.03. 23:40 keine Meldung -
Mo, 18.03. 23:30 0.0 l/m2 in 1 Std. -
Mo, 18.03. 23:20 keine Meldung -
Mo, 18.03. 23:10 keine Meldung -
Mo, 18.03. 23:00 0.0 l/m2 in 1 Std. -
Mo, 18.03. 22:30 0.0 l/m2 in 1 Std. -
Mo, 18.03. 22:00 0.1 l/m2 in 1 Std. Regen
Mo, 18.03. 21:30 0.1 l/m2 in 1 Std. Schneeregen
Mo, 18.03. 21:00 0.1 l/m2 in 1 Std. Regen
Ortszeit Stärke Spitze Richtung
km/h Bft. km/h Grad Sektor
Mo, 18.03. 19:00 11 2 40 330° NW
Mo, 18.03. 13:00 25 4 40 260° W
Mo, 18.03. 7:00 13 3 31 210° SW
Mo, 18.03. 1:00 20 4 43 250° W
So, 17.03. 19:00 17 3 67 270° W
So, 17.03. 13:00 24 4 43 180° S
So, 17.03. 7:00 14 3 29 170° S
So, 17.03. 1:00 14 3 22 170° S
Ortszeit Stärke Spitze Richtung
km/h Bft. km/h Grad Sektor
Di, 19.03. 0:00 7 2 14 270° W
Mo, 18.03. 23:50 7 2 - 270° W
Mo, 18.03. 23:40 7 2 - 270° W
Mo, 18.03. 23:30 4 1 11 180° S
Mo, 18.03. 23:20 4 1 - 180° S
Mo, 18.03. 23:10 4 1 - 190° S
Mo, 18.03. 23:00 9 2 11 190° S
Mo, 18.03. 22:30 7 2 11 190° S
Mo, 18.03. 22:00 6 1 35 100° O
Mo, 18.03. 21:30 11 2 36 290° W
Mo, 18.03. 21:00 19 3 28 300° NW
Ortszeit Untergrenze Bedeckung Gattung
total tief tief mittel hoch
Mo, 18.03. 19:00 990 m 8/8 7/8 - - -
Mo, 18.03. 13:00 1500 m 3/8 3/8 - - -
Mo, 18.03. 7:00 1500 m 5/8 4/8 - - -
Mo, 18.03. 1:00 660 m 7/8 7/8 - - -
So, 17.03. 19:00 1290 m 8/8 8/8 - - -
So, 17.03. 13:00 3600 m 4/8 4/8 - - -
So, 17.03. 7:00 9000 m 2/8 0/8 - - -
So, 17.03. 1:00 8400 m 8/8 0/8 - - -
Ortszeit Bedeckungsgrad in Achtel und Wolkenuntergrenze
Di, 19.03. 0:00 2(1080m)
Mo, 18.03. 23:50 2(1080m)
Mo, 18.03. 23:40 2(1110m)
Mo, 18.03. 23:30 1(1140m)
Mo, 18.03. 23:20 1(1140m)
Mo, 18.03. 23:10 keine Wolken
Mo, 18.03. 23:00 keine Wolken
Mo, 18.03. 22:30 keine Wolken
Mo, 18.03. 22:00 2(2700m)
Mo, 18.03. 21:30 3(750m) 7(2100m) 7(3000m)
Mo, 18.03. 21:00 3(930m) 7(2100m) 7(2400m)
Ortszeit Luftdruck NN (hPa) Tendenz (hPa in 3 Std.)
Mo, 18.03. 19:00 1022 + 2,0
Mo, 18.03. 13:00 1020 + 0,9
Mo, 18.03. 7:00 1018 + 1,1
Mo, 18.03. 1:00 1016 + 1,6
So, 17.03. 19:00 1010 + 3,7
So, 17.03. 13:00 1003 - 1,4
So, 17.03. 7:00 1006 - 1,1
So, 17.03. 1:00 1010 - 1,4
Ortszeit Luftdruck NN (hPa) Tendenz (hPa in 3 Std.)
Di, 19.03. 0:00 1025 + 1,0
Mo, 18.03. 23:50 1025 keine Meldung
Mo, 18.03. 23:40 1025 keine Meldung
Mo, 18.03. 23:30 1025 + 1,2
Mo, 18.03. 23:20 1025 keine Meldung
Mo, 18.03. 23:10 1025 keine Meldung
Mo, 18.03. 23:00 1025 + 1,2
Mo, 18.03. 22:30 1025 + 1,3
Mo, 18.03. 22:00 1024 + 1,4
Mo, 18.03. 21:30 1024 + 1,7
Mo, 18.03. 21:00 1024 + 2,1
Ortszeit Schneehöhe (cm)
Mo, 18.03. 19:00 0
Mo, 18.03. 13:00 0
Mo, 18.03. 7:00 0
Mo, 18.03. 1:00 0
So, 17.03. 19:00 0
So, 17.03. 13:00 0
So, 17.03. 7:00 0
So, 17.03. 1:00 0
Ortszeit Schneehöhe (cm)
Di, 19.03. 0:00 0
Mo, 18.03. 23:50 0
Mo, 18.03. 23:40 0
Mo, 18.03. 23:30 0
Mo, 18.03. 23:20 0
Mo, 18.03. 23:10 0
Mo, 18.03. 23:00 0
Mo, 18.03. 22:30 0
Mo, 18.03. 22:00 0
Mo, 18.03. 21:30 0
Mo, 18.03. 21:00 0
Link zu dieser Seite / Seite empfehlen

Das Wetter in ...